sensor_id;sensor_type;location;lat;lon;timestamp;pressure;altitude;pressure_sealevel;temperature;humidity
57250;BME280;43102;52.014;-0.680;2024-03-23T00:54:00;100466;;;6.91;66.19
57250;BME280;43102;52.014;-0.680;2024-03-23T00:55:00;100466;;;6.91;66.19
57250;BME280;43102;52.014;-0.680;2024-03-23T00:56:00;100466;;;6.91;66.19
57250;BME280;43102;52.014;-0.680;2024-03-23T00:57:00;100466;;;6.91;66.19
57250;BME280;43102;52.014;-0.680;2024-03-23T00:58:00;100462;;;6.85;66.57
57250;BME280;43102;52.014;-0.680;2024-03-23T00:59:00;100462;;;6.85;66.57
57250;BME280;43102;52.014;-0.680;2024-03-23T01:00:00;100462;;;6.85;66.57
57250;BME280;43102;52.014;-0.680;2024-03-23T01:01:00;100462;;;6.85;66.57
57250;BME280;43102;52.014;-0.680;2024-03-23T01:02:00;100462;;;6.85;66.57
57250;BME280;43102;52.014;-0.680;2024-03-23T01:03:00;100462;;;6.88;66.70
57250;BME280;43102;52.014;-0.680;2024-03-23T01:04:00;100462;;;6.88;66.70
57250;BME280;43102;52.014;-0.680;2024-03-23T01:05:00;100462;;;6.88;66.70
57250;BME280;43102;52.014;-0.680;2024-03-23T01:06:00;100462;;;6.88;66.70
57250;BME280;43102;52.014;-0.680;2024-03-23T01:07:00;100462;;;6.88;66.70
57250;BME280;43102;52.014;-0.680;2024-03-23T01:08:00;100460;;;6.82;66.88
57250;BME280;43102;52.014;-0.680;2024-03-23T01:09:00;100460;;;6.82;66.88
57250;BME280;43102;52.014;-0.680;2024-03-23T01:10:00;100460;;;6.82;66.88
57250;BME280;43102;52.014;-0.680;2024-03-23T01:11:00;100460;;;6.82;66.88
57250;BME280;43102;52.014;-0.680;2024-03-23T01:12:00;100460;;;6.82;66.88
57250;BME280;43102;52.014;-0.680;2024-03-23T01:13:00;100463;;;6.74;67.29
57250;BME280;43102;52.014;-0.680;2024-03-23T01:14:00;100463;;;6.74;67.29
57250;BME280;43102;52.014;-0.680;2024-03-23T01:15:00;100463;;;6.74;67.29
57250;BME280;43102;52.014;-0.680;2024-03-23T01:16:00;100463;;;6.74;67.29
57250;BME280;43102;52.014;-0.680;2024-03-23T01:17:00;100463;;;6.74;67.29
57250;BME280;43102;52.014;-0.680;2024-03-23T01:18:00;100456;;;6.74;67.02
57250;BME280;43102;52.014;-0.680;2024-03-23T01:19:00;100456;;;6.74;67.02
57250;BME280;43102;52.014;-0.680;2024-03-23T01:20:00;100456;;;6.74;67.02
57250;BME280;43102;52.014;-0.680;2024-03-23T01:21:00;100456;;;6.74;67.02
57250;BME280;43102;52.014;-0.680;2024-03-23T01:22:00;100456;;;6.74;67.02
57250;BME280;43102;52.014;-0.680;2024-03-23T01:23:00;100455;;;6.70;67.14
57250;BME280;43102;52.014;-0.680;2024-03-23T01:24:00;100455;;;6.70;67.14
57250;BME280;43102;52.014;-0.680;2024-03-23T01:25:00;100455;;;6.70;67.14
57250;BME280;43102;52.014;-0.680;2024-03-23T01:26:00;100455;;;6.70;67.14
57250;BME280;43102;52.014;-0.680;2024-03-23T01:27:00;100455;;;6.70;67.14
57250;BME280;43102;52.014;-0.680;2024-03-23T01:28:00;100454;;;6.69;67.06
57250;BME280;43102;52.014;-0.680;2024-03-23T01:29:00;100454;;;6.69;67.06
57250;BME280;43102;52.014;-0.680;2024-03-23T01:30:00;100454;;;6.69;67.06
57250;BME280;43102;52.014;-0.680;2024-03-23T01:31:00;100454;;;6.69;67.06
57250;BME280;43102;52.014;-0.680;2024-03-23T01:32:00;100454;;;6.69;67.06
57250;BME280;43102;52.014;-0.680;2024-03-23T01:33:00;100448;;;6.63;66.89
57250;BME280;43102;52.014;-0.680;2024-03-23T01:34:00;100448;;;6.63;66.89
57250;BME280;43102;52.014;-0.680;2024-03-23T01:35:00;100448;;;6.63;66.89
57250;BME280;43102;52.014;-0.680;2024-03-23T01:36:00;100448;;;6.63;66.89
57250;BME280;43102;52.014;-0.680;2024-03-23T01:37:00;100448;;;6.63;66.89
57250;BME280;43102;52.014;-0.680;2024-03-23T01:38:00;100436;;;6.62;66.99
57250;BME280;43102;52.014;-0.680;2024-03-23T01:39:00;100436;;;6.62;66.99
57250;BME280;43102;52.014;-0.680;2024-03-23T01:40:00;100436;;;6.62;66.99
57250;BME280;43102;52.014;-0.680;2024-03-23T01:41:00;100436;;;6.62;66.99
57250;BME280;43102;52.014;-0.680;2024-03-23T01:42:00;100436;;;6.62;66.99
57250;BME280;43102;52.014;-0.680;2024-03-23T01:43:08;100430;;;6.56;66.93
57250;BME280;43102;52.014;-0.680;2024-03-23T01:44:00;100430;;;6.56;66.93
57250;BME280;43102;52.014;-0.680;2024-03-23T01:45:00;100430;;;6.56;66.93
57250;BME280;43102;52.014;-0.680;2024-03-23T01:46:00;100430;;;6.56;66.93
57250;BME280;43102;52.014;-0.680;2024-03-23T01:47:00;100430;;;6.56;66.93
57250;BME280;43102;52.014;-0.680;2024-03-23T01:48:00;100430;;;6.58;67.00
57250;BME280;43102;52.014;-0.680;2024-03-23T01:49:00;100430;;;6.58;67.00
57250;BME280;43102;52.014;-0.680;2024-03-23T01:50:00;100430;;;6.58;67.00
57250;BME280;43102;52.014;-0.680;2024-03-23T01:51:00;100430;;;6.58;67.00
57250;BME280;43102;52.014;-0.680;2024-03-23T01:52:00;100430;;;6.58;67.00
57250;BME280;43102;52.014;-0.680;2024-03-23T01:53:01;100425;;;6.54;66.94
57250;BME280;43102;52.014;-0.680;2024-03-23T01:54:01;100425;;;6.54;66.94
57250;BME280;43102;52.014;-0.680;2024-03-23T01:55:00;100425;;;6.54;66.94
57250;BME280;43102;52.014;-0.680;2024-03-23T01:56:00;100425;;;6.54;66.94
57250;BME280;43102;52.014;-0.680;2024-03-23T01:57:00;100425;;;6.54;66.94
57250;BME280;43102;52.014;-0.680;2024-03-23T01:58:00;100426;;;6.52;67.02
57250;BME280;43102;52.014;-0.680;2024-03-23T01:59:00;100426;;;6.52;67.02
57250;BME280;43102;52.014;-0.680;2024-03-23T02:00:00;100426;;;6.52;67.02
57250;BME280;43102;52.014;-0.680;2024-03-23T02:01:00;100426;;;6.52;67.02
57250;BME280;43102;52.014;-0.680;2024-03-23T02:02:00;100426;;;6.52;67.02
57250;BME280;43102;52.014;-0.680;2024-03-23T02:03:00;100428;;;6.45;67.01
57250;BME280;43102;52.014;-0.680;2024-03-23T02:04:00;100428;;;6.45;67.01
57250;BME280;43102;52.014;-0.680;2024-03-23T02:05:00;100428;;;6.45;67.01
57250;BME280;43102;52.014;-0.680;2024-03-23T02:06:00;100428;;;6.45;67.01
57250;BME280;43102;52.014;-0.680;2024-03-23T02:07:00;100428;;;6.45;67.01
57250;BME280;43102;52.014;-0.680;2024-03-23T02:08:00;100415;;;6.44;67.14
57250;BME280;43102;52.014;-0.680;2024-03-23T02:09:00;100415;;;6.44;67.14
57250;BME280;43102;52.014;-0.680;2024-03-23T02:10:00;100415;;;6.44;67.14
57250;BME280;43102;52.014;-0.680;2024-03-23T02:11:00;100415;;;6.44;67.14
57250;BME280;43102;52.014;-0.680;2024-03-23T02:12:01;100415;;;6.44;67.14
57250;BME280;43102;52.014;-0.680;2024-03-23T02:13:00;100426;;;6.40;67.38
57250;BME280;43102;52.014;-0.680;2024-03-23T02:14:00;100426;;;6.40;67.38
57250;BME280;43102;52.014;-0.680;2024-03-23T02:15:00;100426;;;6.40;67.38
57250;BME280;43102;52.014;-0.680;2024-03-23T02:16:00;100426;;;6.40;67.38
57250;BME280;43102;52.014;-0.680;2024-03-23T02:17:00;100426;;;6.40;67.38
57250;BME280;43102;52.014;-0.680;2024-03-23T02:18:00;100423;;;6.41;67.43
57250;BME280;43102;52.014;-0.680;2024-03-23T02:19:00;100423;;;6.41;67.43
57250;BME280;43102;52.014;-0.680;2024-03-23T02:20:00;100423;;;6.41;67.43
57250;BME280;43102;52.014;-0.680;2024-03-23T02:21:00;100423;;;6.41;67.43
57250;BME280;43102;52.014;-0.680;2024-03-23T02:22:00;100423;;;6.41;67.43
57250;BME280;43102;52.014;-0.680;2024-03-23T02:23:00;100422;;;6.36;67.70
57250;BME280;43102;52.014;-0.680;2024-03-23T02:24:00;100422;;;6.36;67.70
57250;BME280;43102;52.014;-0.680;2024-03-23T02:25:00;100422;;;6.36;67.70
57250;BME280;43102;52.014;-0.680;2024-03-23T02:26:00;100422;;;6.36;67.70
57250;BME280;43102;52.014;-0.680;2024-03-23T02:27:00;100422;;;6.36;67.70
57250;BME280;43102;52.014;-0.680;2024-03-23T02:28:00;100424;;;6.29;68.08
57250;BME280;43102;52.014;-0.680;2024-03-23T02:29:00;100424;;;6.29;68.08
57250;BME280;43102;52.014;-0.680;2024-03-23T02:30:00;100424;;;6.29;68.08
57250;BME280;43102;52.014;-0.680;2024-03-23T02:31:00;100424;;;6.29;68.08
57250;BME280;43102;52.014;-0.680;2024-03-23T02:32:00;100424;;;6.29;68.08
57250;BME280;43102;52.014;-0.680;2024-03-23T02:33:00;100418;;;6.25;68.23
57250;BME280;43102;52.014;-0.680;2024-03-23T02:34:00;100418;;;6.25;68.23
57250;BME280;43102;52.014;-0.680;2024-03-23T02:35:00;100418;;;6.25;68.23
57250;BME280;43102;52.014;-0.680;2024-03-23T02:36:00;100418;;;6.25;68.23
57250;BME280;43102;52.014;-0.680;2024-03-23T02:37:00;100418;;;6.25;68.23
57250;BME280;43102;52.014;-0.680;2024-03-23T02:38:00;100413;;;6.20;68.49
57250;BME280;43102;52.014;-0.680;2024-03-23T02:39:00;100413;;;6.20;68.49
57250;BME280;43102;52.014;-0.680;2024-03-23T02:40:00;100413;;;6.20;68.49
57250;BME280;43102;52.014;-0.680;2024-03-23T02:41:02;100413;;;6.20;68.49
57250;BME280;43102;52.014;-0.680;2024-03-23T02:42:00;100413;;;6.20;68.49
57250;BME280;43102;52.014;-0.680;2024-03-23T02:43:00;100411;;;6.13;68.76
57250;BME280;43102;52.014;-0.680;2024-03-23T02:44:00;100411;;;6.13;68.76
57250;BME280;43102;52.014;-0.680;2024-03-23T02:45:00;100411;;;6.13;68.76
57250;BME280;43102;52.014;-0.680;2024-03-23T02:46:00;100411;;;6.13;68.76
57250;BME280;43102;52.014;-0.680;2024-03-23T02:47:00;100411;;;6.13;68.76
57250;BME280;43102;52.014;-0.680;2024-03-23T02:48:00;100405;;;6.10;68.80
57250;BME280;43102;52.014;-0.680;2024-03-23T02:49:00;100405;;;6.10;68.80
57250;BME280;43102;52.014;-0.680;2024-03-23T02:50:00;100405;;;6.10;68.80
57250;BME280;43102;52.014;-0.680;2024-03-23T02:51:00;100405;;;6.10;68.80
57250;BME280;43102;52.014;-0.680;2024-03-23T02:52:00;100405;;;6.10;68.80
57250;BME280;43102;52.014;-0.680;2024-03-23T02:53:00;100399;;;6.06;68.83
57250;BME280;43102;52.014;-0.680;2024-03-23T02:54:00;100399;;;6.06;68.83
57250;BME280;43102;52.014;-0.680;2024-03-23T02:55:00;100399;;;6.06;68.83
57250;BME280;43102;52.014;-0.680;2024-03-23T02:56:00;100399;;;6.06;68.83
57250;BME280;43102;52.014;-0.680;2024-03-23T02:57:00;100399;;;6.06;68.83
57250;BME280;43102;52.014;-0.680;2024-03-23T02:58:00;100390;;;5.98;69.19
57250;BME280;43102;52.014;-0.680;2024-03-23T02:59:00;100390;;;5.98;69.19
57250;BME280;43102;52.014;-0.680;2024-03-23T03:00:00;100390;;;5.98;69.19
57250;BME280;43102;52.014;-0.680;2024-03-23T03:01:00;100390;;;5.98;69.19
57250;BME280;43102;52.014;-0.680;2024-03-23T03:02:00;100390;;;5.98;69.19
57250;BME280;43102;52.014;-0.680;2024-03-23T03:03:00;100389;;;5.92;69.29
57250;BME280;43102;52.014;-0.680;2024-03-23T03:04:00;100389;;;5.92;69.29
57250;BME280;43102;52.014;-0.680;2024-03-23T03:05:00;100389;;;5.92;69.29
57250;BME280;43102;52.014;-0.680;2024-03-23T03:06:00;100389;;;5.92;69.29
57250;BME280;43102;52.014;-0.680;2024-03-23T03:07:00;100389;;;5.92;69.29
57250;BME280;43102;52.014;-0.680;2024-03-23T03:08:00;100394;;;5.87;69.34
57250;BME280;43102;52.014;-0.680;2024-03-23T03:09:00;100394;;;5.87;69.34
57250;BME280;43102;52.014;-0.680;2024-03-23T03:10:00;100394;;;5.87;69.34
57250;BME280;43102;52.014;-0.680;2024-03-23T03:11:00;100394;;;5.87;69.34
57250;BME280;43102;52.014;-0.680;2024-03-23T03:12:00;100394;;;5.87;69.34
57250;BME280;43102;52.014;-0.680;2024-03-23T03:13:00;100390;;;5.81;69.34
57250;BME280;43102;52.014;-0.680;2024-03-23T03:14:00;100390;;;5.81;69.34
57250;BME280;43102;52.014;-0.680;2024-03-23T03:15:00;100390;;;5.81;69.34
57250;BME280;43102;52.014;-0.680;2024-03-23T03:16:00;100390;;;5.81;69.34
57250;BME280;43102;52.014;-0.680;2024-03-23T03:17:00;100390;;;5.81;69.34
57250;BME280;43102;52.014;-0.680;2024-03-23T03:18:00;100386;;;5.71;69.55
57250;BME280;43102;52.014;-0.680;2024-03-23T03:19:00;100386;;;5.71;69.55
57250;BME280;43102;52.014;-0.680;2024-03-23T03:20:00;100386;;;5.71;69.55
57250;BME280;43102;52.014;-0.680;2024-03-23T03:21:00;100386;;;5.71;69.55
57250;BME280;43102;52.014;-0.680;2024-03-23T03:22:00;100386;;;5.71;69.55
57250;BME280;43102;52.014;-0.680;2024-03-23T03:23:00;100389;;;5.65;69.68
57250;BME280;43102;52.014;-0.680;2024-03-23T03:24:00;100389;;;5.65;69.68
57250;BME280;43102;52.014;-0.680;2024-03-23T03:25:00;100389;;;5.65;69.68
57250;BME280;43102;52.014;-0.680;2024-03-23T03:26:00;100389;;;5.65;69.68
57250;BME280;43102;52.014;-0.680;2024-03-23T03:27:00;100389;;;5.65;69.68
57250;BME280;43102;52.014;-0.680;2024-03-23T03:28:00;100388;;;5.53;70.20
57250;BME280;43102;52.014;-0.680;2024-03-23T03:29:00;100388;;;5.53;70.20
57250;BME280;43102;52.014;-0.680;2024-03-23T03:30:00;100388;;;5.53;70.20
57250;BME280;43102;52.014;-0.680;2024-03-23T03:31:00;100388;;;5.53;70.20
57250;BME280;43102;52.014;-0.680;2024-03-23T03:32:00;100388;;;5.53;70.20
57250;BME280;43102;52.014;-0.680;2024-03-23T03:33:00;100377;;;5.50;70.20
57250;BME280;43102;52.014;-0.680;2024-03-23T03:34:00;100377;;;5.50;70.20
57250;BME280;43102;52.014;-0.680;2024-03-23T03:35:00;100377;;;5.50;70.20
57250;BME280;43102;52.014;-0.680;2024-03-23T03:36:00;100377;;;5.50;70.20
57250;BME280;43102;52.014;-0.680;2024-03-23T03:37:00;100377;;;5.50;70.20
57250;BME280;43102;52.014;-0.680;2024-03-23T03:38:00;100380;;;5.43;70.53
57250;BME280;43102;52.014;-0.680;2024-03-23T03:39:00;100380;;;5.43;70.53
57250;BME280;43102;52.014;-0.680;2024-03-23T03:40:00;100380;;;5.43;70.53
57250;BME280;43102;52.014;-0.680;2024-03-23T03:41:00;100380;;;5.43;70.53
57250;BME280;43102;52.014;-0.680;2024-03-23T03:42:00;100380;;;5.43;70.53
57250;BME280;43102;52.014;-0.680;2024-03-23T03:43:00;100380;;;5.39;70.37
57250;BME280;43102;52.014;-0.680;2024-03-23T03:44:00;100380;;;5.39;70.37
57250;BME280;43102;52.014;-0.680;2024-03-23T03:45:00;100380;;;5.39;70.37
57250;BME280;43102;52.014;-0.680;2024-03-23T03:46:00;100380;;;5.39;70.37
57250;BME280;43102;52.014;-0.680;2024-03-23T03:47:00;100380;;;5.39;70.37
57250;BME280;43102;52.014;-0.680;2024-03-23T03:48:00;100375;;;5.35;70.54
57250;BME280;43102;52.014;-0.680;2024-03-23T03:49:00;100375;;;5.35;70.54
57250;BME280;43102;52.014;-0.680;2024-03-23T03:50:00;100375;;;5.35;70.54
57250;BME280;43102;52.014;-0.680;2024-03-23T03:51:00;100375;;;5.35;70.54
57250;BME280;43102;52.014;-0.680;2024-03-23T03:52:00;100375;;;5.35;70.54
57250;BME280;43102;52.014;-0.680;2024-03-23T03:53:00;100381;;;5.28;70.56
57250;BME280;43102;52.014;-0.680;2024-03-23T03:54:00;100381;;;5.28;70.56
57250;BME280;43102;52.014;-0.680;2024-03-23T03:55:01;100381;;;5.28;70.56
57250;BME280;43102;52.014;-0.680;2024-03-23T03:56:00;100381;;;5.28;70.56
57250;BME280;43102;52.014;-0.680;2024-03-23T03:57:00;100381;;;5.28;70.56
57250;BME280;43102;52.014;-0.680;2024-03-23T03:58:00;100382;;;5.22;70.68
57250;BME280;43102;52.014;-0.680;2024-03-23T03:59:00;100382;;;5.22;70.68
57250;BME280;43102;52.014;-0.680;2024-03-23T04:00:00;100382;;;5.22;70.68
57250;BME280;43102;52.014;-0.680;2024-03-23T04:01:00;100382;;;5.22;70.68
57250;BME280;43102;52.014;-0.680;2024-03-23T04:02:00;100382;;;5.22;70.68
57250;BME280;43102;52.014;-0.680;2024-03-23T04:03:00;100373;;;5.18;70.84
57250;BME280;43102;52.014;-0.680;2024-03-23T04:04:00;100373;;;5.18;70.84
57250;BME280;43102;52.014;-0.680;2024-03-23T04:05:00;100373;;;5.18;70.84
57250;BME280;43102;52.014;-0.680;2024-03-23T04:06:00;100373;;;5.18;70.84
57250;BME280;43102;52.014;-0.680;2024-03-23T04:07:00;100373;;;5.18;70.84
57250;BME280;43102;52.014;-0.680;2024-03-23T04:08:00;100365;;;5.06;71.24
57250;BME280;43102;52.014;-0.680;2024-03-23T04:09:00;100365;;;5.06;71.24
57250;BME280;43102;52.014;-0.680;2024-03-23T04:10:00;100365;;;5.06;71.24
57250;BME280;43102;52.014;-0.680;2024-03-23T04:11:00;100365;;;5.06;71.24
57250;BME280;43102;52.014;-0.680;2024-03-23T04:12:00;100365;;;5.06;71.24
57250;BME280;43102;52.014;-0.680;2024-03-23T04:13:00;100370;;;4.97;71.47
57250;BME280;43102;52.014;-0.680;2024-03-23T04:14:00;100370;;;4.97;71.47
57250;BME280;43102;52.014;-0.680;2024-03-23T04:15:00;100370;;;4.97;71.47
57250;BME280;43102;52.014;-0.680;2024-03-23T04:16:00;100370;;;4.97;71.47
57250;BME280;43102;52.014;-0.680;2024-03-23T04:17:00;100370;;;4.97;71.47
57250;BME280;43102;52.014;-0.680;2024-03-23T04:18:00;100367;;;4.98;71.43
57250;BME280;43102;52.014;-0.680;2024-03-23T04:19:00;100367;;;4.98;71.43
57250;BME280;43102;52.014;-0.680;2024-03-23T04:20:00;100367;;;4.98;71.43
57250;BME280;43102;52.014;-0.680;2024-03-23T04:21:00;100367;;;4.98;71.43
57250;BME280;43102;52.014;-0.680;2024-03-23T04:22:00;100367;;;4.98;71.43
57250;BME280;43102;52.014;-0.680;2024-03-23T04:23:00;100363;;;4.96;71.42
57250;BME280;43102;52.014;-0.680;2024-03-23T04:24:00;100363;;;4.96;71.42
57250;BME280;43102;52.014;-0.680;2024-03-23T04:25:00;100363;;;4.96;71.42
57250;BME280;43102;52.014;-0.680;2024-03-23T04:26:03;100363;;;4.96;71.42
57250;BME280;43102;52.014;-0.680;2024-03-23T04:27:00;100363;;;4.96;71.42
57250;BME280;43102;52.014;-0.680;2024-03-23T04:28:00;100352;;;4.89;72.08
57250;BME280;43102;52.014;-0.680;2024-03-23T04:29:00;100352;;;4.89;72.08
57250;BME280;43102;52.014;-0.680;2024-03-23T04:30:00;100352;;;4.89;72.08
57250;BME280;43102;52.014;-0.680;2024-03-23T04:31:03;100352;;;4.89;72.08
57250;BME280;43102;52.014;-0.680;2024-03-23T04:32:00;100352;;;4.89;72.08
57250;BME280;43102;52.014;-0.680;2024-03-23T04:33:00;100343;;;4.96;71.68
57250;BME280;43102;52.014;-0.680;2024-03-23T04:34:00;100343;;;4.96;71.68
57250;BME280;43102;52.014;-0.680;2024-03-23T04:35:00;100343;;;4.96;71.68
57250;BME280;43102;52.014;-0.680;2024-03-23T04:36:00;100343;;;4.96;71.68
57250;BME280;43102;52.014;-0.680;2024-03-23T04:37:00;100343;;;4.96;71.68
57250;BME280;43102;52.014;-0.680;2024-03-23T04:38:00;100339;;;4.94;72.17
57250;BME280;43102;52.014;-0.680;2024-03-23T04:39:00;100339;;;4.94;72.17
57250;BME280;43102;52.014;-0.680;2024-03-23T04:40:00;100339;;;4.94;72.17
57250;BME280;43102;52.014;-0.680;2024-03-23T04:41:00;100339;;;4.94;72.17
57250;BME280;43102;52.014;-0.680;2024-03-23T04:42:00;100339;;;4.94;72.17
57250;BME280;43102;52.014;-0.680;2024-03-23T04:43:00;100339;;;4.91;72.23
57250;BME280;43102;52.014;-0.680;2024-03-23T04:44:00;100339;;;4.91;72.23
57250;BME280;43102;52.014;-0.680;2024-03-23T04:45:00;100339;;;4.91;72.23
57250;BME280;43102;52.014;-0.680;2024-03-23T04:46:00;100339;;;4.91;72.23
57250;BME280;43102;52.014;-0.680;2024-03-23T04:47:00;100339;;;4.91;72.23
57250;BME280;43102;52.014;-0.680;2024-03-23T04:48:00;100333;;;4.97;71.84
57250;BME280;43102;52.014;-0.680;2024-03-23T04:49:00;100333;;;4.97;71.84
57250;BME280;43102;52.014;-0.680;2024-03-23T04:50:00;100333;;;4.97;71.84
57250;BME280;43102;52.014;-0.680;2024-03-23T04:51:00;100333;;;4.97;71.84
57250;BME280;43102;52.014;-0.680;2024-03-23T04:52:00;100333;;;4.97;71.84
57250;BME280;43102;52.014;-0.680;2024-03-23T04:53:00;100331;;;4.95;71.77
57250;BME280;43102;52.014;-0.680;2024-03-23T04:54:00;100331;;;4.95;71.77
57250;BME280;43102;52.014;-0.680;2024-03-23T04:55:00;100331;;;4.95;71.77
57250;BME280;43102;52.014;-0.680;2024-03-23T04:56:00;100331;;;4.95;71.77
57250;BME280;43102;52.014;-0.680;2024-03-23T04:57:00;100331;;;4.95;71.77
57250;BME280;43102;52.014;-0.680;2024-03-23T04:58:00;100331;;;4.83;72.27
57250;BME280;43102;52.014;-0.680;2024-03-23T04:59:00;100331;;;4.83;72.27
57250;BME280;43102;52.014;-0.680;2024-03-23T05:00:00;100331;;;4.83;72.27
57250;BME280;43102;52.014;-0.680;2024-03-23T05:01:00;100331;;;4.83;72.27
57250;BME280;43102;52.014;-0.680;2024-03-23T05:02:00;100331;;;4.83;72.27
57250;BME280;43102;52.014;-0.680;2024-03-23T05:03:00;100328;;;4.87;72.10
57250;BME280;43102;52.014;-0.680;2024-03-23T05:04:00;100328;;;4.87;72.10
57250;BME280;43102;52.014;-0.680;2024-03-23T05:05:00;100328;;;4.87;72.10
57250;BME280;43102;52.014;-0.680;2024-03-23T05:06:00;100328;;;4.87;72.10
57250;BME280;43102;52.014;-0.680;2024-03-23T05:07:00;100328;;;4.87;72.10
57250;BME280;43102;52.014;-0.680;2024-03-23T05:08:00;100327;;;4.86;72.08
57250;BME280;43102;52.014;-0.680;2024-03-23T05:09:00;100327;;;4.86;72.08
57250;BME280;43102;52.014;-0.680;2024-03-23T05:10:00;100327;;;4.86;72.08
57250;BME280;43102;52.014;-0.680;2024-03-23T05:11:00;100327;;;4.86;72.08
57250;BME280;43102;52.014;-0.680;2024-03-23T05:12:00;100327;;;4.86;72.08
57250;BME280;43102;52.014;-0.680;2024-03-23T05:13:00;100326;;;4.85;72.08
57250;BME280;43102;52.014;-0.680;2024-03-23T05:14:00;100326;;;4.85;72.08
57250;BME280;43102;52.014;-0.680;2024-03-23T05:15:00;100326;;;4.85;72.08
57250;BME280;43102;52.014;-0.680;2024-03-23T05:16:00;100326;;;4.85;72.08
57250;BME280;43102;52.014;-0.680;2024-03-23T05:17:00;100326;;;4.85;72.08
57250;BME280;43102;52.014;-0.680;2024-03-23T05:18:00;100327;;;4.86;72.10
57250;BME280;43102;52.014;-0.680;2024-03-23T05:19:00;100327;;;4.86;72.10
57250;BME280;43102;52.014;-0.680;2024-03-23T05:20:00;100327;;;4.86;72.10
57250;BME280;43102;52.014;-0.680;2024-03-23T05:21:00;100327;;;4.86;72.10
57250;BME280;43102;52.014;-0.680;2024-03-23T05:22:00;100327;;;4.86;72.10
57250;BME280;43102;52.014;-0.680;2024-03-23T05:23:00;100322;;;4.85;72.08
57250;BME280;43102;52.014;-0.680;2024-03-23T05:24:00;100322;;;4.85;72.08
57250;BME280;43102;52.014;-0.680;2024-03-23T05:25:00;100322;;;4.85;72.08
57250;BME280;43102;52.014;-0.680;2024-03-23T05:26:00;100322;;;4.85;72.08
57250;BME280;43102;52.014;-0.680;2024-03-23T05:27:00;100322;;;4.85;72.08
57250;BME280;43102;52.014;-0.680;2024-03-23T05:28:00;100318;;;4.84;72.21
57250;BME280;43102;52.014;-0.680;2024-03-23T05:29:00;100318;;;4.84;72.21
57250;BME280;43102;52.014;-0.680;2024-03-23T05:30:00;100318;;;4.84;72.21
57250;BME280;43102;52.014;-0.680;2024-03-23T05:31:00;100318;;;4.84;72.21
57250;BME280;43102;52.014;-0.680;2024-03-23T05:32:00;100318;;;4.84;72.21
57250;BME280;43102;52.014;-0.680;2024-03-23T05:33:00;100316;;;4.84;72.28
57250;BME280;43102;52.014;-0.680;2024-03-23T05:34:00;100316;;;4.84;72.28
57250;BME280;43102;52.014;-0.680;2024-03-23T05:35:00;100316;;;4.84;72.28
57250;BME280;43102;52.014;-0.680;2024-03-23T05:36:00;100316;;;4.84;72.28
57250;BME280;43102;52.014;-0.680;2024-03-23T05:37:00;100316;;;4.84;72.28
57250;BME280;43102;52.014;-0.680;2024-03-23T05:38:00;100318;;;4.86;71.96
57250;BME280;43102;52.014;-0.680;2024-03-23T05:39:00;100318;;;4.86;71.96
57250;BME280;43102;52.014;-0.680;2024-03-23T05:40:00;100318;;;4.86;71.96
57250;BME280;43102;52.014;-0.680;2024-03-23T05:41:00;100318;;;4.86;71.96
57250;BME280;43102;52.014;-0.680;2024-03-23T05:42:00;100318;;;4.86;71.96
57250;BME280;43102;52.014;-0.680;2024-03-23T05:43:00;100310;;;4.83;72.06
57250;BME280;43102;52.014;-0.680;2024-03-23T05:44:00;100310;;;4.83;72.06
57250;BME280;43102;52.014;-0.680;2024-03-23T05:45:00;100310;;;4.83;72.06
57250;BME280;43102;52.014;-0.680;2024-03-23T05:46:00;100310;;;4.83;72.06
57250;BME280;43102;52.014;-0.680;2024-03-23T05:47:00;100310;;;4.83;72.06
57250;BME280;43102;52.014;-0.680;2024-03-23T05:48:00;100310;;;4.81;71.89
57250;BME280;43102;52.014;-0.680;2024-03-23T05:49:00;100310;;;4.81;71.89
57250;BME280;43102;52.014;-0.680;2024-03-23T05:50:00;100310;;;4.81;71.89
57250;BME280;43102;52.014;-0.680;2024-03-23T05:51:00;100310;;;4.81;71.89
57250;BME280;43102;52.014;-0.680;2024-03-23T05:52:00;100310;;;4.81;71.89
57250;BME280;43102;52.014;-0.680;2024-03-23T05:53:00;100301;;;4.80;71.96
57250;BME280;43102;52.014;-0.680;2024-03-23T05:54:00;100301;;;4.80;71.96
57250;BME280;43102;52.014;-0.680;2024-03-23T05:55:00;100301;;;4.80;71.96
57250;BME280;43102;52.014;-0.680;2024-03-23T05:56:01;100301;;;4.80;71.96
57250;BME280;43102;52.014;-0.680;2024-03-23T05:57:00;100301;;;4.80;71.96
57250;BME280;43102;52.014;-0.680;2024-03-23T05:58:00;100302;;;4.79;71.86
57250;BME280;43102;52.014;-0.680;2024-03-23T05:59:00;100302;;;4.79;71.86
57250;BME280;43102;52.014;-0.680;2024-03-23T06:00:00;100302;;;4.79;71.86
57250;BME280;43102;52.014;-0.680;2024-03-23T06:01:00;100302;;;4.79;71.86
57250;BME280;43102;52.014;-0.680;2024-03-23T06:02:00;100302;;;4.79;71.86
57250;BME280;43102;52.014;-0.680;2024-03-23T06:03:00;100298;;;4.78;71.88
57250;BME280;43102;52.014;-0.680;2024-03-23T06:04:00;100298;;;4.78;71.88
57250;BME280;43102;52.014;-0.680;2024-03-23T06:05:00;100298;;;4.78;71.88
57250;BME280;43102;52.014;-0.680;2024-03-23T06:06:00;100298;;;4.78;71.88
57250;BME280;43102;52.014;-0.680;2024-03-23T06:07:00;100298;;;4.78;71.88
57250;BME280;43102;52.014;-0.680;2024-03-23T06:08:00;100304;;;4.77;72.15
57250;BME280;43102;52.014;-0.680;2024-03-23T06:09:00;100304;;;4.77;72.15
57250;BME280;43102;52.014;-0.680;2024-03-23T06:10:00;100304;;;4.77;72.15
57250;BME280;43102;52.014;-0.680;2024-03-23T06:11:00;100304;;;4.77;72.15
57250;BME280;43102;52.014;-0.680;2024-03-23T06:12:00;100304;;;4.77;72.15
57250;BME280;43102;52.014;-0.680;2024-03-23T06:13:00;100304;;;4.77;71.84
57250;BME280;43102;52.014;-0.680;2024-03-23T06:14:00;100304;;;4.77;71.84
57250;BME280;43102;52.014;-0.680;2024-03-23T06:15:00;100304;;;4.77;71.84
57250;BME280;43102;52.014;-0.680;2024-03-23T06:16:00;100304;;;4.77;71.84
57250;BME280;43102;52.014;-0.680;2024-03-23T06:17:00;100304;;;4.77;71.84
57250;BME280;43102;52.014;-0.680;2024-03-23T06:18:00;100293;;;4.76;71.83
57250;BME280;43102;52.014;-0.680;2024-03-23T06:19:00;100293;;;4.76;71.83
57250;BME280;43102;52.014;-0.680;2024-03-23T06:20:00;100293;;;4.76;71.83